Time;durP1;ratioP1;P1;durP2;ratioP2;P2;SDS_P1;SDS_P2;PMS_P1;PMS_P2;Temp;Humidity;BMP_temperature;BMP_pressure;BME280_temperature;BME280_humidity;BME280_pressure;Samples;Min_cycle;Max_cycle;Signal;HPM_P1;HPM_P2
2022/10/27 00:01:02;;;;;;;;;;;;;;;10.97;75.28;101620.09;5048870;28;19966;-30
2022/10/27 00:03:28;;;;;;;;;;;;;;;10.95;75.33;101610.41;5067848;28;19924;-30
2022/10/27 00:05:53;;;;;;;;;;;;;;;10.93;75.51;101604.28;5066580;28;19916;-30
2022/10/27 00:08:19;;;;;;;;;;;;;;;10.95;75.69;101613.06;5065736;28;19970;-30
2022/10/27 00:10:44;;;;;;;;;;;;;;;10.97;75.22;101613.97;5058986;28;20278;-30
2022/10/27 00:13:10;;;;;;;;;;;;;;;10.99;75.52;101620.13;5043710;28;19923;-30
2022/10/27 00:15:36;;;;;;;;;;;;;;;10.98;75.54;101615.72;5066782;28;19924;-30
2022/10/27 00:18:05;;;;;;;;;;;;;;;10.98;75.52;101629.81;5059608;28;19933;-30
2022/10/27 00:20:31;;;;;;;;;;;;;;;10.99;75.18;101617.47;5067834;28;19920;-30
2022/10/27 00:22:56;;;;;;;;;;;;;;;10.99;75.21;101620.13;5054127;28;19950;-30
2022/10/27 00:25:21;;;;;;;;;;;;;;;10.98;75.37;101621.91;5070597;28;19916;-30
2022/10/27 00:27:46;;;;;;;;;;;;;;;10.98;75.33;101628.91;5065930;28;20015;-30
2022/10/27 00:30:11;;;;;;;;;;;;;;;10.96;75.35;101625.38;5070381;28;20020;-30
2022/10/27 00:32:37;;;;;;;;;;;;;;;10.96;75.14;101633.28;5071259;28;20015;-30
2022/10/27 00:35:02;;;;;;;;;;;;;;;10.94;74.97;101628.00;5063776;28;19939;-30
2022/10/27 00:37:27;;;;;;;;;;;;;;;10.95;75.08;101631.53;5066516;28;20394;-30
2022/10/27 00:39:53;;;;;;;;;;;;;;;10.94;75.21;101637.69;5064614;28;19916;-30
2022/10/27 00:42:18;;;;;;;;;;;;;;;10.94;75.09;101637.69;5070066;28;19924;-30
2022/10/27 00:44:46;;;;;;;;;;;;;;;10.94;75.15;101640.34;5072841;28;19917;-30
2022/10/27 00:47:17;;;;;;;;;;;;;;;10.92;74.93;101645.59;5060904;28;19916;-29
2022/10/27 00:49:45;;;;;;;;;;;;;;;10.91;75.04;101647.34;5037616;28;20357;-29
2022/10/27 00:52:34;;;;;;;;;;;;;;;10.90;74.88;101640.31;5067324;28;19932;-30
2022/10/27 00:55:19;;;;;;;;;;;;;;;10.88;74.80;101649.97;5059584;28;19923;-30
2022/10/27 00:57:45;;;;;;;;;;;;;;;10.85;74.70;101643.81;5071784;28;19962;-30
2022/10/27 01:00:10;;;;;;;;;;;;;;;10.85;74.68;101655.25;5068048;28;20438;-30
2022/10/27 01:02:35;;;;;;;;;;;;;;;10.84;74.58;101647.31;5067881;28;20003;-30
2022/10/27 01:05:17;;;;;;;;;;;;;;;10.83;74.89;101657.00;5065254;28;19917;-30
2022/10/27 01:07:42;;;;;;;;;;;;;;;10.81;74.45;101658.75;5065766;28;20006;-30
2022/10/27 01:10:08;;;;;;;;;;;;;;;10.80;74.42;101656.97;5048814;28;20333;-30
2022/10/27 01:12:33;;;;;;;;;;;;;;;10.81;74.43;101657.88;5063796;28;20330;-30
2022/10/27 01:14:58;;;;;;;;;;;;;;;10.78;74.48;101651.69;5053226;28;19923;-30
2022/10/27 01:17:42;;;;;;;;;;;;;;;10.76;74.39;101655.19;5062223;28;19916;-30
2022/10/27 01:20:26;;;;;;;;;;;;;;;10.74;74.53;101657.81;5067141;28;19921;-30
2022/10/27 01:23:00;;;;;;;;;;;;;;;10.72;74.45;101658.69;5062262;28;20016;-30
2022/10/27 01:25:44;;;;;;;;;;;;;;;10.71;74.32;101656.94;5061540;28;20011;-30
2022/10/27 01:28:28;;;;;;;;;;;;;;;10.70;74.46;101657.81;5052019;28;20361;-30
2022/10/27 01:31:09;;;;;;;;;;;;;;;10.67;74.77;101647.22;5062986;28;19916;-30
2022/10/27 01:34:00;;;;;;;;;;;;;;;10.63;74.35;101644.56;5043183;28;19963;-30
2022/10/27 01:36:41;;;;;;;;;;;;;;;10.62;74.35;101653.38;5053886;28;20039;-30
2022/10/27 01:39:10;;;;;;;;;;;;;;;10.60;74.47;101665.66;5049328;28;19920;-30
2022/10/27 01:41:46;;;;;;;;;;;;;;;10.58;74.54;101662.13;5053074;28;19932;-30
2022/10/27 01:44:13;;;;;;;;;;;;;;;10.57;74.42;101662.97;5045574;28;20378;-30
2022/10/27 01:46:38;;;;;;;;;;;;;;;10.56;74.58;101660.34;5045142;28;19936;-30
2022/10/27 01:49:06;;;;;;;;;;;;;;;10.56;74.64;101662.97;5049103;28;19917;-30
2022/10/27 01:51:32;;;;;;;;;;;;;;;10.54;74.40;101665.63;5060616;28;20364;-30
2022/10/27 01:53:57;;;;;;;;;;;;;;;10.53;74.37;101666.47;5067839;28;20497;-30
2022/10/27 01:56:31;;;;;;;;;;;;;;;10.50;74.76;101664.69;5063991;28;20441;-30
2022/10/27 01:58:56;;;;;;;;;;;;;;;10.49;74.83;101673.50;5062457;28;20382;-30
2022/10/27 02:01:22;;;;;;;;;;;;;;;10.47;74.42;101669.09;5059405;28;20449;-30
2022/10/27 02:03:52;;;;;;;;;;;;;;;10.45;74.41;101676.09;5065068;28;20317;-30
2022/10/27 02:06:33;;;;;;;;;;;;;;;10.45;74.56;101684.00;5067654;28;20075;-30
2022/10/27 02:08:59;;;;;;;;;;;;;;;10.43;74.43;101672.53;5067246;28;19966;-30
2022/10/27 02:11:24;;;;;;;;;;;;;;;10.42;74.71;101676.03;5047800;28;20184;-30
2022/10/27 02:13:51;;;;;;;;;;;;;;;10.40;74.71;101678.66;5061901;28;19921;-30
2022/10/27 02:16:19;;;;;;;;;;;;;;;10.38;74.56;101670.72;5068191;28;19969;-30
2022/10/27 02:19:13;;;;;;;;;;;;;;;10.36;74.68;101672.47;5049752;28;19927;-29
2022/10/27 02:21:39;;;;;;;;;;;;;;;10.34;74.60;101679.47;5055888;28;20393;-30
2022/10/27 02:24:04;;;;;;;;;;;;;;;10.33;74.33;101668.91;5035065;28;20040;-30
2022/10/27 02:26:37;;;;;;;;;;;;;;;10.32;74.74;101670.69;5060875;28;19920;-29
2022/10/27 02:29:04;;;;;;;;;;;;;;;10.30;74.70;101676.84;5062340;28;19916;-30
2022/10/27 02:31:30;;;;;;;;;;;;;;;10.27;74.73;101681.19;5057944;28;20369;-30
2022/10/27 02:33:56;;;;;;;;;;;;;;;10.27;74.48;101680.31;5052181;28;19962;-29
2022/10/27 02:36:21;;;;;;;;;;;;;;;10.24;74.54;101680.31;5045691;28;19964;-30
2022/10/27 02:38:46;;;;;;;;;;;;;;;10.23;74.50;101673.25;5037078;28;19916;-30
2022/10/27 02:41:11;;;;;;;;;;;;;;;10.22;74.32;101674.13;5068030;28;19920;-30
2022/10/27 02:43:37;;;;;;;;;;;;;;;10.19;74.72;101674.09;5063098;28;19927;-30
2022/10/27 02:46:02;;;;;;;;;;;;;;;10.17;74.80;101666.16;5059279;28;19917;-30
2022/10/27 02:48:27;;;;;;;;;;;;;;;10.16;74.63;101668.78;5066870;28;19928;-29
2022/10/27 02:50:52;;;;;;;;;;;;;;;10.14;74.48;101671.44;5057138;28;19916;-30
2022/10/27 02:53:18;;;;;;;;;;;;;;;10.12;74.61;101666.16;5068278;28;20388;-30
2022/10/27 02:55:43;;;;;;;;;;;;;;;10.12;74.76;101662.63;5047733;28;19990;-29
2022/10/27 02:58:08;;;;;;;;;;;;;;;10.08;74.84;101674.91;5067743;28;19923;-30
2022/10/27 03:00:33;;;;;;;;;;;;;;;10.08;74.89;101677.53;5057160;28;19924;-30
2022/10/27 03:02:58;;;;;;;;;;;;;;;10.07;74.84;101681.00;5060740;28;19920;-29
2022/10/27 03:05:24;;;;;;;;;;;;;;;10.07;74.70;101685.41;5055927;28;19916;-29
2022/10/27 03:07:49;;;;;;;;;;;;;;;10.05;74.75;101685.41;5057491;28;19912;-29
2022/10/27 03:10:14;;;;;;;;;;;;;;;10.04;74.78;101680.13;5049022;28;19916;-30
2022/10/27 03:12:39;;;;;;;;;;;;;;;10.03;74.46;101687.13;5061415;28;20054;-29
2022/10/27 03:15:05;;;;;;;;;;;;;;;10.00;74.95;101684.47;5059800;28;19927;-30
2022/10/27 03:17:30;;;;;;;;;;;;;;;9.99;74.87;101691.50;5054980;28;19943;-30
2022/10/27 03:19:55;;;;;;;;;;;;;;;9.99;74.78;101701.16;5060116;28;19924;-29
2022/10/27 03:22:20;;;;;;;;;;;;;;;9.96;74.54;101699.38;5046566;28;19921;-29
2022/10/27 03:24:46;;;;;;;;;;;;;;;9.95;74.83;101713.44;5057313;28;19927;-29
2022/10/27 03:27:11;;;;;;;;;;;;;;;9.95;74.74;101712.53;5053173;28;19923;-30
2022/10/27 03:29:36;;;;;;;;;;;;;;;9.93;74.68;101712.50;5058928;28;19928;-30
2022/10/27 03:32:01;;;;;;;;;;;;;;;9.91;74.68;101716.91;5059752;28;19920;-29
2022/10/27 03:34:26;;;;;;;;;;;;;;;9.91;74.81;101721.28;5057006;28;19920;-29
2022/10/27 03:36:52;;;;;;;;;;;;;;;9.89;74.78;101723.88;5072882;28;20007;-29
2022/10/27 03:39:17;;;;;;;;;;;;;;;9.88;74.68;101723.00;5074100;28;20088;-30
2022/10/27 03:41:42;;;;;;;;;;;;;;;9.87;74.65;101718.59;5071891;28;21076;-30
2022/10/27 03:44:07;;;;;;;;;;;;;;;9.86;74.68;101724.75;5066549;28;19939;-29
2022/10/27 03:46:33;;;;;;;;;;;;;;;9.84;74.41;101722.97;5055116;28;19913;-30
2022/10/27 03:48:58;;;;;;;;;;;;;;;9.82;74.35;101722.06;5054889;28;19912;-30
2022/10/27 03:51:23;;;;;;;;;;;;;;;9.79;74.53;101719.38;5054600;28;19913;-29
2022/10/27 03:53:48;;;;;;;;;;;;;;;9.78;74.50;101723.78;5054796;28;19917;-29
2022/10/27 03:56:13;;;;;;;;;;;;;;;9.77;74.47;101724.63;5074703;28;20359;-30
2022/10/27 03:58:39;;;;;;;;;;;;;;;9.75;74.42;101729.91;5073769;28;19918;-29
2022/10/27 04:01:04;;;;;;;;;;;;;;;9.73;74.71;101728.09;5056188;28;20420;-29
2022/10/27 04:03:29;;;;;;;;;;;;;;;9.73;74.77;101730.72;5056143;28;19924;-29
2022/10/27 04:05:55;;;;;;;;;;;;;;;9.72;74.64;101734.25;5064901;28;19917;-29
2022/10/27 04:08:20;;;;;;;;;;;;;;;9.70;74.58;101738.63;5065812;28;19913;-29
2022/10/27 04:10:45;;;;;;;;;;;;;;;9.71;74.64;101735.13;5066958;28;19917;-29
2022/10/27 04:13:10;;;;;;;;;;;;;;;9.67;74.86;101723.63;5060063;28;19924;-30
2022/10/27 04:15:36;;;;;;;;;;;;;;;9.66;74.70;101729.78;5065602;28;19967;-30
2022/10/27 04:18:01;;;;;;;;;;;;;;;9.63;74.81;101733.28;5060153;28;19917;-29
2022/10/27 04:20:26;;;;;;;;;;;;;;;9.63;74.81;101741.19;5063938;28;19917;-30
2022/10/27 04:22:53;;;;;;;;;;;;;;;9.62;74.65;101742.06;5054685;28;19917;-29
2022/10/27 04:25:18;;;;;;;;;;;;;;;9.63;74.85;101753.44;5058159;28;20011;-29
2022/10/27 04:27:44;;;;;;;;;;;;;;;9.61;74.75;101750.78;5058802;28;20345;-29
2022/10/27 04:30:09;;;;;;;;;;;;;;;9.60;75.07;101756.94;5065297;28;19962;-29
2022/10/27 04:32:34;;;;;;;;;;;;;;;9.58;75.10;101761.31;5053806;28;19917;-29
2022/10/27 04:35:00;;;;;;;;;;;;;;;9.59;74.82;101763.09;5041698;28;19968;-30
2022/10/27 04:37:25;;;;;;;;;;;;;;;9.57;74.81;101764.78;5064753;28;20278;-30
2022/10/27 04:39:50;;;;;;;;;;;;;;;9.56;74.81;101763.03;5073455;28;20404;-30
2022/10/27 04:42:15;;;;;;;;;;;;;;;9.55;75.00;101763.00;5033493;28;20374;-30
2022/10/27 04:44:41;;;;;;;;;;;;;;;9.54;74.98;101767.38;5064491;28;20388;-29
2022/10/27 04:47:06;;;;;;;;;;;;;;;9.52;74.84;101761.22;5056066;28;19979;-30
2022/10/27 04:49:31;;;;;;;;;;;;;;;9.52;74.67;101755.06;5051900;28;20041;-29
2022/10/27 04:51:56;;;;;;;;;;;;;;;9.52;74.93;101760.34;5072207;28;19917;-30
2022/10/27 04:54:21;;;;;;;;;;;;;;;9.51;74.81;101764.75;5066937;28;20366;-29
2022/10/27 04:56:47;;;;;;;;;;;;;;;9.48;74.83;101764.69;5061640;28;19924;-29
2022/10/27 04:59:12;;;;;;;;;;;;;;;9.48;74.89;101772.59;5062819;28;19927;-29
2022/10/27 05:01:38;;;;;;;;;;;;;;;9.47;74.81;101774.31;5044077;28;20412;-29
2022/10/27 05:04:03;;;;;;;;;;;;;;;9.46;74.96;101771.66;5068801;28;19917;-29
2022/10/27 05:06:28;;;;;;;;;;;;;;;9.45;74.82;101770.81;5034584;28;19920;-30
2022/10/27 05:08:53;;;;;;;;;;;;;;;9.43;74.58;101761.09;5047070;28;19924;-29
2022/10/27 05:11:19;;;;;;;;;;;;;;;9.43;74.95;101761.09;5071385;28;19912;-29
2022/10/27 05:13:47;;;;;;;;;;;;;;;9.42;74.73;101769.88;5072780;28;19924;-30
2022/10/27 05:16:12;;;;;;;;;;;;;;;9.40;74.61;101769.84;5073385;28;19912;-29
2022/10/27 05:18:38;;;;;;;;;;;;;;;9.40;74.52;101774.25;5071301;28;20496;-29
2022/10/27 05:21:03;;;;;;;;;;;;;;;9.37;74.80;101773.31;5072309;28;20435;-29
2022/10/27 05:23:30;;;;;;;;;;;;;;;9.36;74.66;101775.94;5072117;28;20225;-29
2022/10/27 05:25:55;;;;;;;;;;;;;;;9.35;74.52;101779.44;5073071;28;20431;-29
2022/10/27 05:28:21;;;;;;;;;;;;;;;9.33;74.58;101776.78;5073215;28;20341;-30
2022/10/27 05:30:46;;;;;;;;;;;;;;;9.32;74.55;101790.81;5058259;28;19917;-29
2022/10/27 05:33:11;;;;;;;;;;;;;;;9.30;74.66;101797.78;5053256;28;19971;-29
2022/10/27 05:35:36;;;;;;;;;;;;;;;9.28;74.65;101799.53;5053552;28;19913;-29
2022/10/27 05:38:02;;;;;;;;;;;;;;;9.28;74.39;101803.91;5053031;28;19913;-29
2022/10/27 05:40:33;;;;;;;;;;;;;;;9.25;74.55;101804.75;5063339;28;19964;-30
2022/10/27 05:42:58;;;;;;;;;;;;;;;9.24;74.71;101800.34;5072903;28;20050;-29
2022/10/27 05:45:23;;;;;;;;;;;;;;;9.22;74.69;101799.44;5070248;28;20418;-29
2022/10/27 05:47:55;;;;;;;;;;;;;;;9.19;74.45;101805.53;5071882;28;19912;-29
2022/10/27 05:50:20;;;;;;;;;;;;;;;9.17;74.41;101807.25;5054393;28;19920;-30
2022/10/27 05:52:46;;;;;;;;;;;;;;;9.16;74.73;101812.50;5072100;28;20296;-29
2022/10/27 05:55:11;;;;;;;;;;;;;;;9.15;74.57;101808.09;5069865;28;19923;-29
2022/10/27 05:57:37;;;;;;;;;;;;;;;9.14;74.32;101807.19;5060051;28;19921;-29
2022/10/27 06:00:02;;;;;;;;;;;;;;;9.10;74.42;101810.66;5072544;28;19919;-29
2022/10/27 06:02:27;;;;;;;;;;;;;;;9.11;74.61;101812.44;5068646;28;20027;-29
2022/10/27 06:04:52;;;;;;;;;;;;;;;9.09;74.56;101808.88;5052552;28;19912;-29
2022/10/27 06:07:18;;;;;;;;;;;;;;;9.06;74.52;101809.72;5052608;28;19920;-30
2022/10/27 06:09:43;;;;;;;;;;;;;;;9.05;74.60;101807.06;5053897;28;19924;-31
2022/10/27 06:12:08;;;;;;;;;;;;;;;9.02;74.42;101810.56;5071965;28;19913;-30
2022/10/27 06:14:33;;;;;;;;;;;;;;;9.03;74.66;101814.94;5072287;28;19913;-30
2022/10/27 06:16:58;;;;;;;;;;;;;;;9.01;74.35;101808.78;5054104;28;19917;-30
2022/10/27 06:19:24;;;;;;;;;;;;;;;8.99;74.71;101813.13;5061672;28;19962;-30
2022/10/27 06:21:49;;;;;;;;;;;;;;;8.98;74.52;101822.75;5051837;28;20011;-30
2022/10/27 06:24:14;;;;;;;;;;;;;;;8.97;74.76;101822.75;5051956;28;19917;-30
2022/10/27 06:26:39;;;;;;;;;;;;;;;8.97;74.58;101825.41;5052136;28;19924;-30
2022/10/27 06:29:05;;;;;;;;;;;;;;;8.95;74.55;101816.56;5037970;28;20270;-30
2022/10/27 06:31:30;;;;;;;;;;;;;;;8.95;74.81;101821.84;5071952;28;19913;-30
2022/10/27 06:33:55;;;;;;;;;;;;;;;8.94;74.78;101817.44;5072230;28;20377;-30
2022/10/27 06:36:21;;;;;;;;;;;;;;;8.92;74.73;101819.16;5070227;28;20374;-30
2022/10/27 06:38:46;;;;;;;;;;;;;;;8.92;74.83;101822.69;5071105;28;20388;-30
2022/10/27 06:41:11;;;;;;;;;;;;;;;8.92;74.67;101816.53;5071229;28;20007;-30
2022/10/27 06:43:36;;;;;;;;;;;;;;;8.93;74.67;101831.44;5057875;28;19920;-30
2022/10/27 06:46:01;;;;;;;;;;;;;;;8.92;74.94;101835.84;5051781;28;19912;-30
2022/10/27 06:48:27;;;;;;;;;;;;;;;8.91;74.88;101833.19;5051681;28;19923;-30
2022/10/27 06:50:52;;;;;;;;;;;;;;;8.90;75.11;101834.03;5051592;28;19995;-30
2022/10/27 06:53:17;;;;;;;;;;;;;;;8.91;75.22;101836.72;5049013;28;19951;-29
2022/10/27 06:55:42;;;;;;;;;;;;;;;8.91;75.15;101838.44;5062709;28;19917;-30
2022/10/27 06:58:08;;;;;;;;;;;;;;;8.92;75.06;101838.47;5053053;28;20446;-30
2022/10/27 07:00:33;;;;;;;;;;;;;;;8.93;75.09;101834.06;5051520;28;20011;-30
2022/10/27 07:02:58;;;;;;;;;;;;;;;8.94;75.29;101836.72;5051652;28;20003;-30
2022/10/27 07:05:24;;;;;;;;;;;;;;;8.97;75.19;101836.78;5062946;28;20007;-30
2022/10/27 07:07:49;;;;;;;;;;;;;;;8.98;75.25;101835.91;5053345;28;20418;-30
2022/10/27 07:10:15;;;;;;;;;;;;;;;9.01;75.27;101847.38;5071817;28;19924;-31
2022/10/27 07:12:51;;;;;;;;;;;;;;;9.02;75.53;101844.75;5074542;28;19951;-30
2022/10/27 07:15:16;;;;;;;;;;;;;;;9.03;75.40;101843.91;5070237;28;19928;-30
2022/10/27 07:17:41;;;;;;;;;;;;;;;9.04;75.91;101848.28;5061647;28;20450;-30
2022/10/27 07:20:07;;;;;;;;;;;;;;;9.07;75.96;101852.75;5046995;28;20327;-30
2022/10/27 07:22:32;;;;;;;;;;;;;;;9.08;76.14;101850.13;5053617;28;19924;-30
2022/10/27 07:24:57;;;;;;;;;;;;;;;9.09;76.13;101846.63;5055244;28;19923;-30
2022/10/27 07:27:23;;;;;;;;;;;;;;;9.12;76.05;101848.44;5069694;28;20034;-29
2022/10/27 07:29:49;;;;;;;;;;;;;;;9.15;76.24;101845.84;5057055;28;20015;-30
2022/10/27 07:32:14;;;;;;;;;;;;;;;9.19;76.11;101852.03;5075379;28;19922;-29
2022/10/27 07:34:40;;;;;;;;;;;;;;;9.19;76.11;101841.50;5078189;28;19995;-29
2022/10/27 07:37:05;;;;;;;;;;;;;;;9.22;76.12;101849.44;5060974;28;19935;-30
2022/10/27 07:39:30;;;;;;;;;;;;;;;9.24;75.88;101853.88;5078697;28;19966;-29
2022/10/27 07:41:56;;;;;;;;;;;;;;;9.27;75.62;101857.44;5078956;28;20370;-29
2022/10/27 07:44:21;;;;;;;;;;;;;;;9.29;75.58;101856.59;5065757;28;19916;-29
2022/10/27 07:46:47;;;;;;;;;;;;;;;9.32;75.64;101854.00;5079062;28;20015;-29
2022/10/27 07:49:12;;;;;;;;;;;;;;;9.37;75.75;101854.06;5076825;28;19963;-30
2022/10/27 07:51:38;;;;;;;;;;;;;;;9.41;75.94;101865.53;5055292;28;20370;-29
2022/10/27 07:54:03;;;;;;;;;;;;;;;9.44;75.89;101863.81;5053962;28;19913;-30
2022/10/27 07:56:29;;;;;;;;;;;;;;;9.49;75.74;101863.91;5037083;28;19919;-29
2022/10/27 07:58:55;;;;;;;;;;;;;;;9.54;75.81;101859.56;5058846;28;19916;-30
2022/10/27 08:01:20;;;;;;;;;;;;;;;9.59;75.71;101852.63;5055411;28;20324;-30
2022/10/27 08:03:45;;;;;;;;;;;;;;;9.66;75.86;101852.69;5040867;28;19923;-30
2022/10/27 08:06:11;;;;;;;;;;;;;;;9.72;75.85;101852.78;5059784;28;19983;-30
2022/10/27 08:08:37;;;;;;;;;;;;;;;9.78;75.66;101846.72;5043429;28;19916;-29
2022/10/27 08:11:02;;;;;;;;;;;;;;;9.83;75.45;101855.56;5063258;28;19919;-29
2022/10/27 08:13:28;;;;;;;;;;;;;;;9.89;75.87;101853.00;5064133;28;20006;-29
2022/10/27 08:15:55;;;;;;;;;;;;;;;9.94;75.60;101848.69;5065510;28;19916;-29
2022/10/27 08:18:20;;;;;;;;;;;;;;;10.00;nan;101853.13;5063734;28;19917;-30
2022/10/27 08:20:46;;;;;;;;;;;;;;;10.06;75.30;101857.59;5040661;28;19936;-31
2022/10/27 08:23:12;;;;;;;;;;;;;;;10.12;75.46;101858.59;5054293;28;19939;-31
2022/10/27 08:25:37;;;;;;;;;;;;;;;10.19;75.47;101856.00;5073381;28;19917;-30
2022/10/27 08:28:03;;;;;;;;;;;;;;;10.25;75.22;101858.72;5056915;28;19923;-30
2022/10/27 08:30:29;;;;;;;;;;;;;;;10.32;75.46;101855.28;5044489;28;20067;-31
2022/10/27 08:32:55;;;;;;;;;;;;;;;10.38;75.60;101865.88;5055304;28;19913;-31
2022/10/27 08:35:20;;;;;;;;;;;;;;;10.44;75.56;101869.47;5037636;28;20365;-31
2022/10/27 08:37:45;;;;;;;;;;;;;;;10.50;75.95;101859.91;5070643;28;19925;-30
2022/10/27 08:40:11;;;;;;;;;;;;;;;10.56;75.69;101859.06;5074573;28;19917;-30
2022/10/27 08:42:56;;;;;;;;;;;;;;;10.63;75.64;101863.53;5040294;28;20003;-30
2022/10/27 08:45:36;;;;;;;;;;;;;;;10.71;75.92;101865.38;5073190;28;20006;-31
2022/10/27 08:48:01;;;;;;;;;;;;;;;10.78;76.10;101869.84;5074318;28;19920;-31
2022/10/27 08:50:27;;;;;;;;;;;;;;;10.85;75.97;101866.41;5054666;28;19912;-31
2022/10/27 08:52:54;;;;;;;;;;;;;;;10.91;76.36;101871.72;5036656;28;19912;-30
2022/10/27 08:55:25;;;;;;;;;;;;;;;10.98;76.29;101867.38;5036612;28;19955;-31
2022/10/27 08:58:13;;;;;;;;;;;;;;;11.04;76.59;101861.28;5036205;28;19924;-31
2022/10/27 09:00:58;;;;;;;;;;;;;;;11.12;76.66;101864.84;5025216;28;19920;-30
2022/10/27 09:03:42;;;;;;;;;;;;;;;11.22;76.60;101867.56;5056916;28;19970;-31
2022/10/27 09:06:20;;;;;;;;;;;;;;;11.31;76.90;101865.00;5054812;28;20407;-30
2022/10/27 09:08:55;;;;;;;;;;;;;;;11.40;77.48;101857.13;5053420;28;19916;-30
2022/10/27 09:11:27;;;;;;;;;;;;;;;11.49;78.14;101860.69;5071388;28;19923;-30
2022/10/27 09:13:55;;;;;;;;;;;;;;;11.60;79.02;101860.78;5073715;28;19912;-30
2022/10/27 09:16:36;;;;;;;;;;;;;;;11.68;79.06;101849.34;5073802;28;20417;-30
2022/10/27 09:19:02;;;;;;;;;;;;;;;11.80;79.24;101855.56;5047377;28;20408;-30
2022/10/27 09:21:27;;;;;;;;;;;;;;;11.89;78.63;101854.72;5064313;28;19916;-31
2022/10/27 09:23:53;;;;;;;;;;;;;;;11.99;79.09;101855.66;5050420;28;19916;-31
2022/10/27 09:26:21;;;;;;;;;;;;;;;12.08;79.41;101853.09;5073944;28;19917;-31
2022/10/27 09:28:51;;;;;;;;;;;;;;;12.18;79.53;101852.22;5073569;28;19975;-31
2022/10/27 09:31:39;;;;;;;;;;;;;;;12.28;79.34;101852.25;5056126;28;19919;-31
2022/10/27 09:34:15;;;;;;;;;;;;;;;12.39;80.46;101853.16;5052708;28;19917;-31
2022/10/27 09:36:40;;;;;;;;;;;;;;;12.49;80.14;101851.44;5036509;28;19916;-31
2022/10/27 09:39:06;;;;;;;;;;;;;;;12.58;80.22;101851.44;5035775;28;19913;-30
2022/10/27 09:41:32;;;;;;;;;;;;;;;12.69;80.16;101846.16;5054097;28;19920;-31
2022/10/27 09:43:59;;;;;;;;;;;;;;;12.79;80.08;101848.81;5035284;28;20018;-30
2022/10/27 09:46:26;;;;;;;;;;;;;;;12.89;80.59;101842.63;5052689;28;20389;-30
2022/10/27 09:48:54;;;;;;;;;;;;;;;13.00;80.91;101852.34;5053604;28;20081;-31
2022/10/27 09:51:20;;;;;;;;;;;;;;;13.10;81.38;101848.78;5053553;28;19916;-30
2022/10/27 09:53:46;;;;;;;;;;;;;;;13.20;81.20;101852.31;5053039;28;19923;-30
2022/10/27 09:56:14;;;;;;;;;;;;;;;13.30;80.84;101850.53;5057332;28;19917;-31
2022/10/27 09:58:44;;;;;;;;;;;;;;;13.38;80.72;101840.81;5072586;28;20110;-31
2022/10/27 10:01:10;;;;;;;;;;;;;;;13.46;80.57;101844.34;5072358;28;19916;-31
2022/10/27 10:03:35;;;;;;;;;;;;;;;13.54;80.59;101846.97;5072998;28;20431;-30
2022/10/27 10:06:21;;;;;;;;;;;;;;;13.63;80.65;101845.22;5046436;28;19924;-30
2022/10/27 10:08:47;;;;;;;;;;;;;;;13.71;80.88;101836.31;5035476;28;19912;-30
2022/10/27 10:11:24;;;;;;;;;;;;;;;13.80;81.69;101837.16;5034798;28;19923;-31
2022/10/27 10:13:57;;;;;;;;;;;;;;;13.88;81.53;101831.84;5072289;28;20400;-30
2022/10/27 10:16:22;;;;;;;;;;;;;;;13.96;81.48;101838.00;5070273;28;19913;-30
2022/10/27 10:18:59;;;;;;;;;;;;;;;14.06;81.70;101836.19;5063109;28;19920;-30
2022/10/27 10:21:25;;;;;;;;;;;;;;;14.14;82.47;101823.75;5071376;28;20022;-30
2022/10/27 10:23:51;;;;;;;;;;;;;;;14.22;82.52;101824.63;5072606;28;19989;-30
2022/10/27 10:26:25;;;;;;;;;;;;;;;14.33;82.32;101834.25;5072345;28;20060;-30
2022/10/27 10:28:53;;;;;;;;;;;;;;;14.40;82.31;101820.06;5072312;28;19916;-30
2022/10/27 10:31:26;;;;;;;;;;;;;;;14.49;81.82;101822.66;5038171;28;19994;-31
2022/10/27 10:33:51;;;;;;;;;;;;;;;14.57;81.43;101819.09;5053718;28;19939;-31
2022/10/27 10:36:36;;;;;;;;;;;;;;;14.64;81.36;101815.47;5068767;28;20006;-31
2022/10/27 10:39:01;;;;;;;;;;;;;;;14.72;81.36;101811.00;5073059;28;19982;-30
2022/10/27 10:41:27;;;;;;;;;;;;;;;14.81;81.44;101809.19;5049824;28;20368;-31
2022/10/27 10:44:11;;;;;;;;;;;;;;;14.88;81.33;101813.53;5053768;28;20321;-31
2022/10/27 10:46:40;;;;;;;;;;;;;;;14.96;81.14;101817.00;5051678;28;19920;-31
2022/10/27 10:49:10;;;;;;;;;;;;;;;15.03;82.45;101803.69;5053191;28;19913;-30
2022/10/27 10:51:36;;;;;;;;;;;;;;;15.10;81.72;101808.91;5034208;28;19920;-30
2022/10/27 10:54:03;;;;;;;;;;;;;;;15.19;81.37;101813.25;5055253;28;19920;-31
2022/10/27 10:56:29;;;;;;;;;;;;;;;15.26;81.24;101809.63;5071622;28;19917;-31
2022/10/27 10:59:10;;;;;;;;;;;;;;;15.35;81.59;101810.44;5071892;28;20436;-31
2022/10/27 11:01:38;;;;;;;;;;;;;;;15.45;81.48;101811.19;5071409;28;19923;-31
2022/10/27 11:04:03;;;;;;;;;;;;;;;15.51;81.46;101804.03;5052893;28;20461;-31
2022/10/27 11:06:28;;;;;;;;;;;;;;;15.59;81.45;101803.06;5031248;28;20332;-31
2022/10/27 11:08:58;;;;;;;;;;;;;;;15.67;81.78;101808.31;5053858;28;19913;-31
2022/10/27 11:11:25;;;;;;;;;;;;;;;15.74;81.45;101805.53;5071334;28;19963;-30
2022/10/27 11:13:52;;;;;;;;;;;;;;;15.83;81.42;101798.31;5058471;28;19913;-30
2022/10/27 11:16:17;;;;;;;;;;;;;;;15.91;81.45;101792.00;5058051;28;19916;-31
2022/10/27 11:18:42;;;;;;;;;;;;;;;15.98;81.57;101787.53;5069525;28;19927;-31
2022/10/27 11:21:11;;;;;;;;;;;;;;;16.05;81.55;101777.69;5071057;28;20011;-31
2022/10/27 11:23:46;;;;;;;;;;;;;;;16.13;81.75;101780.22;5053747;28;19913;-31
2022/10/27 11:26:12;;;;;;;;;;;;;;;16.21;81.76;101777.44;5072027;28;19912;-31
2022/10/27 11:28:41;;;;;;;;;;;;;;;16.27;81.88;101780.88;5035124;28;20333;-31
2022/10/27 11:31:16;;;;;;;;;;;;;;;16.33;81.54;101779.03;5051159;28;19912;-31
2022/10/27 11:33:44;;;;;;;;;;;;;;;16.38;81.40;101772.72;5034600;28;19922;-30
2022/10/27 11:36:37;;;;;;;;;;;;;;;16.45;81.08;101768.19;5061584;28;19923;-30
2022/10/27 11:39:09;;;;;;;;;;;;;;;16.52;81.13;101767.19;5069453;28;20365;-30
2022/10/27 11:41:53;;;;;;;;;;;;;;;16.58;81.09;101760.00;5071136;28;19917;-30
2022/10/27 11:44:19;;;;;;;;;;;;;;;16.65;80.97;101748.34;5071407;28;19920;-31
2022/10/27 11:47:00;;;;;;;;;;;;;;;16.71;80.81;101761.56;5070822;28;19970;-31
2022/10/27 11:49:45;;;;;;;;;;;;;;;16.79;80.70;101756.97;5071288;28;19942;-31
2022/10/27 11:52:17;;;;;;;;;;;;;;;16.87;80.96;101750.63;5070883;28;20003;-31
2022/10/27 11:54:42;;;;;;;;;;;;;;;16.93;80.92;101753.16;5061163;28;19923;-31
2022/10/27 11:57:14;;;;;;;;;;;;;;;17.01;81.19;101751.22;5050761;28;19917;-31
2022/10/27 11:59:44;;;;;;;;;;;;;;;17.09;80.96;101750.22;5054881;28;19920;-31
2022/10/27 12:02:09;;;;;;;;;;;;;;;17.20;81.29;101744.72;5054443;28;20349;-31
2022/10/27 12:04:35;;;;;;;;;;;;;;;17.25;80.73;101745.50;5059628;28;20010;-31
2022/10/27 12:07:06;;;;;;;;;;;;;;;17.31;80.46;101745.38;5064256;28;19971;-30
2022/10/27 12:09:31;;;;;;;;;;;;;;;17.35;80.37;101741.72;5054482;28;20183;-30
2022/10/27 12:12:08;;;;;;;;;;;;;;;17.41;79.89;101735.41;5054188;28;19917;-30
2022/10/27 12:14:52;;;;;;;;;;;;;;;17.49;79.52;101732.56;5054942;28;20393;-30
2022/10/27 12:17:26;;;;;;;;;;;;;;;17.53;79.07;101734.25;5054489;28;19927;-31
2022/10/27 12:19:53;;;;;;;;;;;;;;;17.61;79.08;101736.75;5054522;28;19913;-31
2022/10/27 12:22:23;;;;;;;;;;;;;;;17.65;78.88;101738.44;5037166;28;19955;-31
2022/10/27 12:24:51;;;;;;;;;;;;;;;17.68;78.91;101743.72;5037387;28;20313;-31
2022/10/27 12:27:19;;;;;;;;;;;;;;;17.72;78.63;101734.72;5053756;28;19970;-31
2022/10/27 12:29:48;;;;;;;;;;;;;;;17.80;78.35;101732.75;5036504;28;19913;-31
2022/10/27 12:32:24;;;;;;;;;;;;;;;17.88;78.45;101726.38;5064847;28;19997;-31
2022/10/27 12:34:57;;;;;;;;;;;;;;;17.93;78.47;101727.13;5038493;28;20336;-31
2022/10/27 12:37:30;;;;;;;;;;;;;;;17.99;78.29;101727.00;5073502;28;19944;-31
2022/10/27 12:40:11;;;;;;;;;;;;;;;18.06;78.20;101717.06;5074375;28;20012;-31
2022/10/27 12:42:36;;;;;;;;;;;;;;;18.13;78.25;101717.81;5055334;28;20010;-31
2022/10/27 12:45:02;;;;;;;;;;;;;;;18.16;78.12;101717.72;5055919;28;19978;-31